Terminal Aerodrome Forecast
Issued by NWS Duluth, MN

Home | Current Version | Previous Version | Text Only | Print | Product List | Glossary On
Versions: 1 2 3 4 5 6 7 8 9 10 11 12 13 14 15 16 17 18 19 20 21
000
FTUS43 KDLH 011005 AAC
TAFDLH
TAF AMD
KDLH 011005Z 0110/0206 22006KT 5SM BR BKN150
     FM011700 26009G15KT P6SM FEW040 SCT150
     FM020000 24005KT P6SM SCT120=

USA.gov is the U.S. government's official web portal to all federal, state and local government web resources and services.